Time;durP1;ratioP1;P1;durP2;ratioP2;P2;SDS_P1;SDS_P2;PMS_P1;PMS_P2;Temp;Humidity;BMP_temperature;BMP_pressure;BME280_temperature;BME280_humidity;BME280_pressure;Samples;Min_cycle;Max_cycle;Signal;HPM_P1;HPM_P2
2022/09/04 00:02:20;;;;;;;;;;;;;;;22.56;54.04;98693.72;5052561;28;19962;-49
2022/09/04 00:04:59;;;;;;;;;;;;;;;22.50;55.07;98684.94;5053940;28;19995;-49
2022/09/04 00:07:24;;;;;;;;;;;;;;;22.43;54.75;98681.75;5053817;28;20341;-49
2022/09/04 00:10:10;;;;;;;;;;;;;;;22.34;55.46;98688.78;5053755;28;19912;-49
2022/09/04 00:12:47;;;;;;;;;;;;;;;22.37;55.67;98692.78;5053688;28;19954;-50
2022/09/04 00:15:19;;;;;;;;;;;;;;;22.39;55.37;98683.41;5053652;28;19995;-49
2022/09/04 00:18:10;;;;;;;;;;;;;;;22.41;55.21;98683.13;5052259;28;20019;-50
2022/09/04 00:20:41;;;;;;;;;;;;;;;22.45;54.92;98689.50;5044914;28;19913;-50
2022/09/04 00:23:16;;;;;;;;;;;;;;;22.50;55.09;98679.59;5052176;28;19978;-49
2022/09/04 00:25:58;;;;;;;;;;;;;;;22.40;55.40;98689.56;5053513;28;20319;-49
2022/09/04 00:28:23;;;;;;;;;;;;;;;22.27;55.44;98690.97;5053324;28;19913;-49
2022/09/04 00:30:55;;;;;;;;;;;;;;;22.08;56.06;98691.59;5052051;28;19919;-49
2022/09/04 00:33:44;;;;;;;;;;;;;;;21.90;56.43;98687.66;5071979;28;19927;-49
2022/09/04 00:36:11;;;;;;;;;;;;;;;21.81;56.63;98685.81;5086310;28;20010;-49
2022/09/04 00:39:02;;;;;;;;;;;;;;;21.80;56.43;98687.72;5093443;28;19965;-49
2022/09/04 00:41:46;;;;;;;;;;;;;;;21.70;56.45;98693.88;5091165;28;19916;-49
2022/09/04 00:44:15;;;;;;;;;;;;;;;21.53;56.15;98690.72;5093229;28;20014;-48
2022/09/04 00:46:43;;;;;;;;;;;;;;;21.46;56.43;98684.88;5091928;28;20336;-49
2022/09/04 00:49:35;;;;;;;;;;;;;;;21.52;56.61;98689.16;5093185;28;19999;-49
2022/09/04 00:52:18;;;;;;;;;;;;;;;21.56;56.97;98682.19;5093202;28;20348;-49
2022/09/04 00:55:16;;;;;;;;;;;;;;;21.51;57.59;98682.19;5093114;28;19936;-50
2022/09/04 00:57:42;;;;;;;;;;;;;;;21.27;58.35;98695.31;5050402;28;19919;-49
2022/09/04 01:00:15;;;;;;;;;;;;;;;21.14;58.82;98691.34;5050475;28;19916;-50
2022/09/04 01:02:55;;;;;;;;;;;;;;;21.07;58.78;98690.81;5033863;28;19913;-50
2022/09/04 01:05:32;;;;;;;;;;;;;;;21.04;58.77;98686.81;5050769;28;20424;-49
2022/09/04 01:08:10;;;;;;;;;;;;;;;21.20;58.46;98697.47;5033160;28;20090;-49
2022/09/04 01:10:54;;;;;;;;;;;;;;;21.38;57.91;98696.09;5050335;28;20441;-49
2022/09/04 01:13:35;;;;;;;;;;;;;;;21.34;58.44;98696.63;5050205;28;19960;-49
2022/09/04 01:16:05;;;;;;;;;;;;;;;21.31;58.44;98691.06;5050185;28;20390;-49
2022/09/04 01:18:42;;;;;;;;;;;;;;;21.29;58.65;98685.97;5050339;28;20425;-49
2022/09/04 01:21:17;;;;;;;;;;;;;;;21.31;59.09;98688.38;5050120;28;19948;-49
2022/09/04 01:24:00;;;;;;;;;;;;;;;21.38;58.92;98688.09;5050141;28;20352;-50
2022/09/04 01:26:35;;;;;;;;;;;;;;;21.49;58.99;98684.34;5049990;28;19939;-50
2022/09/04 01:29:09;;;;;;;;;;;;;;;21.65;58.86;98685.91;5050182;28;19912;-49
2022/09/04 01:31:40;;;;;;;;;;;;;;;21.71;58.66;98690.16;5049998;28;19923;-49
2022/09/04 01:34:19;;;;;;;;;;;;;;;21.62;58.33;98691.00;5085118;28;19923;-49
2022/09/04 01:36:48;;;;;;;;;;;;;;;21.55;58.23;98688.63;5092486;28;20292;-49
2022/09/04 01:39:16;;;;;;;;;;;;;;;21.58;58.40;98695.28;5092435;28;19916;-50
2022/09/04 01:41:45;;;;;;;;;;;;;;;21.48;58.33;98699.56;5091118;28;19912;-50
2022/09/04 01:44:11;;;;;;;;;;;;;;;21.35;58.07;98700.91;5091072;28;19960;-49
2022/09/04 01:46:36;;;;;;;;;;;;;;;21.32;58.40;98708.66;5092444;28;20377;-49
2022/09/04 01:49:01;;;;;;;;;;;;;;;21.46;58.33;98703.59;5092430;28;19965;-48
2022/09/04 01:51:46;;;;;;;;;;;;;;;21.70;58.12;98703.78;5091037;28;19912;-49
2022/09/04 01:54:36;;;;;;;;;;;;;;;21.95;57.74;98708.19;5091002;28;19961;-49
2022/09/04 01:57:09;;;;;;;;;;;;;;;21.99;58.35;98711.94;5090932;28;19961;-50
2022/09/04 01:59:38;;;;;;;;;;;;;;;21.85;58.16;98713.59;5092241;28;19965;-49
2022/09/04 02:02:12;;;;;;;;;;;;;;;21.73;58.58;98708.56;5092246;28;20345;-50
2022/09/04 02:04:50;;;;;;;;;;;;;;;21.59;58.66;98711.03;5092277;28;19919;-50
2022/09/04 02:07:21;;;;;;;;;;;;;;;21.42;58.78;98705.97;5092181;28;19919;-49
2022/09/04 02:09:59;;;;;;;;;;;;;;;21.34;58.81;98709.97;5090873;28;20497;-49
2022/09/04 02:12:26;;;;;;;;;;;;;;;21.19;59.45;98711.88;5092089;28;20377;-50
2022/09/04 02:15:21;;;;;;;;;;;;;;;21.07;60.14;98704.97;5092054;28;19916;-49
2022/09/04 02:17:53;;;;;;;;;;;;;;;21.04;60.63;98712.69;5082833;28;20432;-49
2022/09/04 02:20:22;;;;;;;;;;;;;;;21.07;60.68;98720.97;5093679;28;19919;-48
2022/09/04 02:22:58;;;;;;;;;;;;;;;21.08;60.63;98724.44;5096076;28;19919;-48
2022/09/04 02:25:42;;;;;;;;;;;;;;;21.02;60.45;98728.19;5095970;28;19962;-47
2022/09/04 02:28:21;;;;;;;;;;;;;;;20.92;60.28;98732.44;5096221;28;19915;-48
2022/09/04 02:30:47;;;;;;;;;;;;;;;20.82;60.59;98731.63;5094700;28;19915;-46
2022/09/04 02:33:17;;;;;;;;;;;;;;;20.71;60.91;98733.50;5095332;28;19994;-47
2022/09/04 02:35:43;;;;;;;;;;;;;;;20.68;61.17;98732.16;5095882;28;19912;-47
2022/09/04 02:38:27;;;;;;;;;;;;;;;20.63;61.76;98732.16;5094351;28;19927;-47
2022/09/04 02:41:02;;;;;;;;;;;;;;;20.55;61.90;98732.66;5094391;28;19912;-47
2022/09/04 02:43:56;;;;;;;;;;;;;;;20.53;61.79;98732.13;5094331;28;19912;-48
2022/09/04 02:46:26;;;;;;;;;;;;;;;20.64;61.74;98735.63;5095805;28;20024;-49
2022/09/04 02:49:02;;;;;;;;;;;;;;;20.63;61.99;98739.38;5095531;28;19919;-49
2022/09/04 02:51:42;;;;;;;;;;;;;;;20.58;62.01;98736.66;5095524;28;19959;-49
2022/09/04 02:54:08;;;;;;;;;;;;;;;20.52;62.10;98733.16;5095474;28;19919;-49
2022/09/04 02:56:49;;;;;;;;;;;;;;;20.66;61.93;98730.81;5095647;28;20328;-49
2022/09/04 02:59:23;;;;;;;;;;;;;;;20.79;61.80;98722.31;5095421;28;20440;-49
2022/09/04 03:02:02;;;;;;;;;;;;;;;20.72;62.12;98721.75;5095216;28;19920;-49
2022/09/04 03:04:34;;;;;;;;;;;;;;;20.69;62.34;98724.97;5095318;28;19957;-48
2022/09/04 03:07:13;;;;;;;;;;;;;;;20.66;62.21;98733.50;5095197;28;20408;-49
2022/09/04 03:09:47;;;;;;;;;;;;;;;20.57;62.18;98732.41;5095193;28;19916;-49
2022/09/04 03:12:31;;;;;;;;;;;;;;;20.47;62.75;98725.97;5093803;28;20282;-49
2022/09/04 03:15:08;;;;;;;;;;;;;;;20.55;62.40;98730.00;5095084;28;19919;-49
2022/09/04 03:17:39;;;;;;;;;;;;;;;20.73;62.15;98731.38;5095221;28;20328;-49
2022/09/04 03:20:08;;;;;;;;;;;;;;;20.73;61.69;98732.16;5095002;28;20343;-49
2022/09/04 03:22:48;;;;;;;;;;;;;;;20.73;61.72;98728.72;5094841;28;19912;-49
2022/09/04 03:25:13;;;;;;;;;;;;;;;20.81;61.32;98730.84;5094876;28;19912;-48
2022/09/04 03:27:39;;;;;;;;;;;;;;;20.78;61.37;98726.03;5093517;28;19916;-49
2022/09/04 03:30:09;;;;;;;;;;;;;;;20.76;61.72;98733.50;5094776;28;19951;-49
2022/09/04 03:33:03;;;;;;;;;;;;;;;20.52;61.67;98731.31;5091765;28;19927;-49
2022/09/04 03:35:44;;;;;;;;;;;;;;;20.50;62.71;98737.97;5052044;28;19920;-48
2022/09/04 03:38:15;;;;;;;;;;;;;;;20.80;62.80;98728.44;5052126;28;19919;-49
2022/09/04 03:40:44;;;;;;;;;;;;;;;20.95;61.88;98723.91;5051947;28;19959;-49
2022/09/04 03:43:30;;;;;;;;;;;;;;;21.10;61.74;98727.63;5052000;28;19912;-49
2022/09/04 03:46:10;;;;;;;;;;;;;;;21.41;61.60;98733.75;5051922;28;19982;-49
2022/09/04 03:48:41;;;;;;;;;;;;;;;21.39;60.05;98740.41;5051874;28;19979;-49
2022/09/04 03:51:09;;;;;;;;;;;;;;;20.83;60.79;98734.06;5051919;28;19912;-49
2022/09/04 03:53:50;;;;;;;;;;;;;;;20.80;62.30;98736.44;5051824;28;20003;-50
2022/09/04 03:56:40;;;;;;;;;;;;;;;20.66;61.77;98731.63;5051765;28;19928;-49
2022/09/04 03:59:14;;;;;;;;;;;;;;;20.17;62.87;98721.38;5051785;28;20353;-49
2022/09/04 04:01:46;;;;;;;;;;;;;;;19.81;63.81;98729.22;5051748;28;20349;-49
2022/09/04 04:04:12;;;;;;;;;;;;;;;19.76;63.91;98731.88;5051703;28;19912;-49
2022/09/04 04:06:45;;;;;;;;;;;;;;;19.87;63.82;98738.84;5051551;28;19912;-49
2022/09/04 04:09:28;;;;;;;;;;;;;;;19.81;64.17;98723.91;5051656;28;19967;-49
2022/09/04 04:12:11;;;;;;;;;;;;;;;19.76;64.24;98731.88;5078828;28;19966;-49
2022/09/04 04:14:50;;;;;;;;;;;;;;;19.53;64.79;98727.72;5093896;28;19923;-49
2022/09/04 04:17:15;;;;;;;;;;;;;;;19.32;65.35;98732.94;5093784;28;19951;-49
2022/09/04 04:19:51;;;;;;;;;;;;;;;19.40;66.13;98730.81;5093785;28;20384;-48
2022/09/04 04:22:32;;;;;;;;;;;;;;;19.67;65.43;98739.50;5092435;28;19919;-49
2022/09/04 04:25:33;;;;;;;;;;;;;;;19.85;64.73;98735.63;5092396;28;19912;-49
2022/09/04 04:28:24;;;;;;;;;;;;;;;19.98;64.59;98741.53;5050991;28;20336;-48
2022/09/04 04:30:54;;;;;;;;;;;;;;;20.25;63.97;98744.06;5035645;28;20496;-49
2022/09/04 04:33:31;;;;;;;;;;;;;;;20.44;63.63;98731.81;5033980;28;20378;-49
2022/09/04 04:36:08;;;;;;;;;;;;;;;20.54;62.94;98739.88;5051089;28;19917;-49
2022/09/04 04:38:52;;;;;;;;;;;;;;;20.67;62.78;98741.22;5034372;28;19913;-49
2022/09/04 04:41:20;;;;;;;;;;;;;;;20.87;62.42;98735.13;5050931;28;20290;-49
2022/09/04 04:45:48;;;;;;;;;;;;;;;21.00;61.88;98740.97;5050707;28;20003;-50
2022/09/04 04:47:19;;;;;;;;;;;;;;;21.03;61.78;98740.47;5011034;28;19990;-50
2022/09/04 04:50:05;;;;;;;;;;;;;;;20.94;61.33;98754.31;5011146;28;19917;-49
2022/09/04 04:52:39;;;;;;;;;;;;;;;20.48;61.80;98753.44;5010501;28;19914;-49
2022/09/04 04:55:10;;;;;;;;;;;;;;;20.03;63.28;98753.03;5011026;28;19944;-49
2022/09/04 04:57:45;;;;;;;;;;;;;;;19.81;64.19;98752.41;5010868;28;19924;-49
2022/09/04 05:00:18;;;;;;;;;;;;;;;19.55;64.94;98752.22;5011087;28;19996;-50
2022/09/04 05:02:48;;;;;;;;;;;;;;;19.36;65.59;98755.31;5010886;28;20056;-49
2022/09/04 05:05:25;;;;;;;;;;;;;;;19.16;66.12;98749.84;5010809;28;20407;-49
2022/09/04 05:08:17;;;;;;;;;;;;;;;19.18;66.59;98744.28;5010956;28;19936;-50
2022/09/04 05:10:57;;;;;;;;;;;;;;;19.38;65.74;98751.56;5009670;28;19914;-49
2022/09/04 05:13:32;;;;;;;;;;;;;;;19.50;65.32;98755.66;4994659;28;20295;-49
2022/09/04 05:16:03;;;;;;;;;;;;;;;19.55;65.20;98758.34;5010743;28;19913;-49
2022/09/04 05:18:35;;;;;;;;;;;;;;;19.66;64.96;98756.56;5047206;28;19952;-49
2022/09/04 05:21:16;;;;;;;;;;;;;;;19.77;64.90;98757.44;5052467;28;19959;-49
2022/09/04 05:23:51;;;;;;;;;;;;;;;19.87;64.39;98762.00;5052535;28;19913;-49
2022/09/04 05:26:26;;;;;;;;;;;;;;;20.35;64.04;98768.06;5051087;28;19948;-49
2022/09/04 05:28:58;;;;;;;;;;;;;;;21.14;62.61;98766.06;5052359;28;20482;-48
2022/09/04 05:31:36;;;;;;;;;;;;;;;22.07;60.44;98759.50;5052353;28;19966;-49
2022/09/04 05:34:19;;;;;;;;;;;;;;;22.68;58.36;98757.59;5078891;28;20403;-49
2022/09/04 05:37:05;;;;;;;;;;;;;;;23.42;56.31;98766.38;5091100;28;19920;-50
2022/09/04 05:39:35;;;;;;;;;;;;;;;23.92;55.06;98763.44;5083776;28;19912;-49
2022/09/04 05:42:11;;;;;;;;;;;;;;;24.47;53.89;98769.19;5092473;28;19938;-49
2022/09/04 05:44:55;;;;;;;;;;;;;;;25.07;52.74;98781.19;5091091;28;20470;-50
2022/09/04 05:47:27;;;;;;;;;;;;;;;25.45;50.86;98775.75;5092567;28;20495;-48
2022/09/04 05:50:28;;;;;;;;;;;;;;;25.89;50.25;98777.09;5091039;28;19912;-47
2022/09/04 05:53:16;;;;;;;;;;;;;;;26.39;49.31;98773.66;5049755;28;19917;-49
2022/09/04 05:55:50;;;;;;;;;;;;;;;26.66;47.51;98778.19;5037802;28;19912;-48
2022/09/04 05:58:16;;;;;;;;;;;;;;;26.44;47.39;98781.63;5056411;28;19912;-47
2022/09/04 06:01:00;;;;;;;;;;;;;;;26.23;47.92;98786.66;5056324;28;20502;-48
2022/09/04 06:03:44;;;;;;;;;;;;;;;26.33;47.15;98786.44;5056421;28;19912;-48
2022/09/04 06:06:09;;;;;;;;;;;;;;;26.04;46.94;98792.16;5056437;28;19913;-48
2022/09/04 06:08:55;;;;;;;;;;;;;;;25.75;47.66;98797.78;5056596;28;20322;-47
2022/09/04 06:11:33;;;;;;;;;;;;;;;25.65;48.28;98796.88;5056420;28;19912;-48
2022/09/04 06:14:18;;;;;;;;;;;;;;;25.79;47.40;98793.41;5056286;28;19923;-48
2022/09/04 06:17:02;;;;;;;;;;;;;;;25.83;46.97;98795.19;5056311;28;19913;-48
2022/09/04 06:19:57;;;;;;;;;;;;;;;25.80;47.30;98789.66;5056306;28;19956;-48
2022/09/04 06:22:40;;;;;;;;;;;;;;;26.20;46.51;98793.44;5047116;28;19944;-48
2022/09/04 06:25:08;;;;;;;;;;;;;;;26.36;46.13;98795.78;5056127;28;19998;-48
2022/09/04 06:27:33;;;;;;;;;;;;;;;26.74;45.57;98790.94;5089497;28;19912;-48
2022/09/04 06:30:10;;;;;;;;;;;;;;;27.42;44.13;98788.25;5098714;28;19919;-48
2022/09/04 06:32:35;;;;;;;;;;;;;;;28.11;43.14;98790.47;5098484;28;19922;-49
2022/09/04 06:35:03;;;;;;;;;;;;;;;28.75;41.65;98799.94;5098763;28;19912;-49
2022/09/04 06:37:37;;;;;;;;;;;;;;;29.01;40.65;98795.28;5098678;28;19912;-49
2022/09/04 06:40:05;;;;;;;;;;;;;;;29.17;40.42;98803.72;5098704;28;19912;-49
2022/09/04 06:42:41;;;;;;;;;;;;;;;29.34;39.56;98811.03;5097364;28;20002;-48
2022/09/04 06:45:16;;;;;;;;;;;;;;;29.20;40.37;98811.22;5097386;28;19912;-49
2022/09/04 06:48:00;;;;;;;;;;;;;;;29.61;40.07;98819.84;5098582;28;19912;-49
2022/09/04 06:50:29;;;;;;;;;;;;;;;30.40;37.75;98812.97;5098574;28;19912;-50
2022/09/04 06:53:01;;;;;;;;;;;;;;;30.86;36.69;98815.81;5098548;28;19916;-50
2022/09/04 06:55:34;;;;;;;;;;;;;;;31.45;36.27;98818.34;5098492;28;20373;-49
2022/09/04 06:58:18;;;;;;;;;;;;;;;32.80;35.22;98806.63;5097296;28;19919;-48
2022/09/04 07:00:52;;;;;;;;;;;;;;;33.90;33.32;98809.88;5098448;28;20027;-49
2022/09/04 07:03:37;;;;;;;;;;;;;;;34.12;33.01;98811.16;5098406;28;19918;-50
2022/09/04 07:06:08;;;;;;;;;;;;;;;34.16;32.14;98801.16;5097417;28;20308;-48
2022/09/04 07:08:43;;;;;;;;;;;;;;;35.14;31.99;98810.19;5093955;28;20346;-49
2022/09/04 07:11:18;;;;;;;;;;;;;;;35.73;31.26;98799.94;5095205;28;20343;-49
2022/09/04 07:13:43;;;;;;;;;;;;;;;36.03;29.79;98796.50;5095442;28;19982;-48
2022/09/04 07:16:27;;;;;;;;;;;;;;;36.31;29.19;98789.88;5095049;28;19912;-48
2022/09/04 07:19:11;;;;;;;;;;;;;;;36.54;28.60;98789.78;5094928;28;19912;-49
2022/09/04 07:22:16;;;;;;;;;;;;;;;36.65;27.27;98788.00;5093638;28;19919;-50
2022/09/04 07:25:00;;;;;;;;;;;;;;;36.68;28.20;98795.44;5052411;28;19916;-50
2022/09/04 07:27:49;;;;;;;;;;;;;;;36.72;26.98;98796.25;5052440;28;19919;-50
2022/09/04 07:30:16;;;;;;;;;;;;;;;36.57;26.74;98794.50;5052381;28;20014;-49
2022/09/04 07:32:51;;;;;;;;;;;;;;;35.40;28.00;98790.41;5051902;28;19924;-51
2022/09/04 07:35:35;;;;;;;;;;;;;;;35.20;29.17;98803.31;5052261;28;20485;-50
2022/09/04 07:38:10;;;;;;;;;;;;;;;34.78;29.31;98803.28;5052187;28;19913;-49
2022/09/04 07:40:42;;;;;;;;;;;;;;;34.61;29.76;98799.81;5052101;28;20375;-50
2022/09/04 07:43:14;;;;;;;;;;;;;;;35.39;29.29;98810.66;5051981;28;19916;-50
2022/09/04 07:45:54;;;;;;;;;;;;;;;35.54;28.24;98806.25;5051942;28;19913;-49
2022/09/04 07:48:29;;;;;;;;;;;;;;;35.27;28.59;98810.06;5052038;28;19918;-49
2022/09/04 07:51:02;;;;;;;;;;;;;;;35.65;29.25;98811.09;5035211;28;19920;-48
2022/09/04 07:53:36;;;;;;;;;;;;;;;37.14;28.04;98811.59;5052003;28;19934;-49
2022/09/04 07:56:20;;;;;;;;;;;;;;;38.08;26.63;98812.44;5064072;28;19975;-49
2022/09/04 07:58:49;;;;;;;;;;;;;;;39.36;25.76;98811.34;5054020;28;19912;-49
2022/09/04 08:01:18;;;;;;;;;;;;;;;39.80;24.78;98823.94;5052741;28;19920;-49
2022/09/04 08:04:08;;;;;;;;;;;;;;;40.27;24.44;98819.16;5053933;28;19958;-49
2022/09/04 08:06:52;;;;;;;;;;;;;;;39.79;23.19;98824.34;5052622;28;20400;-50
2022/09/04 08:09:32;;;;;;;;;;;;;;;38.23;24.42;98829.72;5052515;28;19955;-49
2022/09/04 08:12:03;;;;;;;;;;;;;;;37.35;25.44;98823.94;5052491;28;20330;-47
2022/09/04 08:14:41;;;;;;;;;;;;;;;36.50;27.07;98846.34;5053713;28;19916;-49
2022/09/04 08:17:25;;;;;;;;;;;;;;;36.37;27.14;98845.81;5053557;28;19913;-50
2022/09/04 08:20:11;;;;;;;;;;;;;;;36.23;27.34;98845.59;5053633;28;19919;-51
2022/09/04 08:22:46;;;;;;;;;;;;;;;35.70;27.62;98846.28;5053617;28;19916;-50
2022/09/04 08:25:11;;;;;;;;;;;;;;;35.86;28.02;98855.16;5053552;28;20289;-50
2022/09/04 08:27:40;;;;;;;;;;;;;;;36.17;27.66;98847.84;5053491;28;19999;-50
2022/09/04 08:30:07;;;;;;;;;;;;;;;36.41;27.05;98854.84;5053454;28;19917;-50
2022/09/04 08:32:35;;;;;;;;;;;;;;;36.22;27.10;98852.22;5056121;28;19913;-50
2022/09/04 08:35:10;;;;;;;;;;;;;;;35.63;27.61;98857.88;5092288;28;19919;-50
2022/09/04 08:37:48;;;;;;;;;;;;;;;35.06;28.71;98865.78;5093393;28;20270;-49
2022/09/04 08:40:36;;;;;;;;;;;;;;;34.60;29.50;98862.84;5092158;28;19934;-49
2022/09/04 08:43:21;;;;;;;;;;;;;;;34.59;30.03;98870.25;5072834;28;19925;-51
2022/09/04 08:45:49;;;;;;;;;;;;;;;34.32;30.40;98869.25;5093342;28;19918;-49
2022/09/04 08:48:24;;;;;;;;;;;;;;;34.07;30.93;98862.38;5091956;28;19916;-49
2022/09/04 08:51:08;;;;;;;;;;;;;;;33.87;31.54;98862.34;5093247;28;19940;-49
2022/09/04 08:53:52;;;;;;;;;;;;;;;34.36;30.83;98863.88;5093455;28;19916;-49
2022/09/04 08:56:46;;;;;;;;;;;;;;;34.35;30.94;98871.28;5091839;28;19919;-49
2022/09/04 08:59:23;;;;;;;;;;;;;;;34.29;30.92;98860.97;5091426;28;19916;-49
2022/09/04 09:02:00;;;;;;;;;;;;;;;34.15;31.22;98864.19;5093024;28;20393;-49
2022/09/04 09:04:28;;;;;;;;;;;;;;;34.10;31.79;98861.69;5092973;28;19928;-48
2022/09/04 09:07:12;;;;;;;;;;;;;;;34.75;30.80;98863.97;5092954;28;19916;-48
2022/09/04 09:09:38;;;;;;;;;;;;;;;35.66;29.92;98856.38;5092802;28;19930;-48
2022/09/04 09:12:10;;;;;;;;;;;;;;;36.45;29.19;98861.13;5091598;28;19912;-49
2022/09/04 09:14:52;;;;;;;;;;;;;;;36.64;28.32;98868.44;5092783;28;19923;-50
2022/09/04 09:17:24;;;;;;;;;;;;;;;37.12;28.14;98863.19;5091422;28;19924;-49
2022/09/04 09:19:52;;;;;;;;;;;;;;;37.66;26.99;98863.75;5092782;28;19973;-49
2022/09/04 09:22:18;;;;;;;;;;;;;;;38.42;25.87;98862.38;5092754;28;19912;-49
2022/09/04 09:25:02;;;;;;;;;;;;;;;38.82;25.14;98866.13;5093135;28;19916;-49
2022/09/04 09:27:45;;;;;;;;;;;;;;;38.53;25.51;98856.97;5092621;28;19942;-49
2022/09/04 09:30:19;;;;;;;;;;;;;;;38.72;25.40;98864.13;5091747;28;19982;-50
2022/09/04 09:32:58;;;;;;;;;;;;;;;39.28;24.74;98862.75;5092487;28;19916;-49
2022/09/04 09:35:54;;;;;;;;;;;;;;;39.42;24.66;98852.97;5091251;28;20442;-50
2022/09/04 09:38:26;;;;;;;;;;;;;;;39.56;24.42;98858.47;5092458;28;20046;-48
2022/09/04 09:41:04;;;;;;;;;;;;;;;39.17;24.92;98859.19;5092436;28;20010;-49
2022/09/04 09:43:41;;;;;;;;;;;;;;;37.88;25.61;98858.44;5092430;28;19941;-49
2022/09/04 09:46:25;;;;;;;;;;;;;;;37.64;26.59;98857.09;5092374;28;20386;-50
2022/09/04 09:49:02;;;;;;;;;;;;;;;37.10;27.03;98857.28;5092389;28;20011;-49
2022/09/04 09:51:46;;;;;;;;;;;;;;;36.41;28.53;98859.53;5092385;28;19916;-49
2022/09/04 09:54:20;;;;;;;;;;;;;;;37.77;27.30;98850.13;5092272;28;19948;-48
2022/09/04 09:57:05;;;;;;;;;;;;;;;37.37;27.85;98857.22;5092216;28;19912;-49
2022/09/04 09:59:30;;;;;;;;;;;;;;;36.45;28.51;98858.41;5092249;28;19957;-49
2022/09/04 10:01:58;;;;;;;;;;;;;;;35.54;29.10;98862.78;5092260;28;19912;-50
2022/09/04 10:04:25;;;;;;;;;;;;;;;35.39;29.98;98859.78;5090898;28;19912;-50
2022/09/04 10:07:05;;;;;;;;;;;;;;;37.52;28.48;98853.41;5092205;28;19926;-49
2022/09/04 10:09:37;;;;;;;;;;;;;;;40.31;26.10;98847.47;5092180;28;19912;-46
2022/09/04 10:12:25;;;;;;;;;;;;;;;42.19;24.36;98847.16;5092081;28;20007;-48
2022/09/04 10:15:02;;;;;;;;;;;;;;;43.05;22.63;98857.19;5092135;28;19919;-51
2022/09/04 10:17:31;;;;;;;;;;;;;;;43.84;22.12;98851.25;5090959;28;19998;-52
2022/09/04 10:20:02;;;;;;;;;;;;;;;43.61;21.20;98857.56;5092337;28;19912;-52
2022/09/04 10:22:46;;;;;;;;;;;;;;;42.64;21.82;98853.38;5091011;28;19923;-51
2022/09/04 10:25:30;;;;;;;;;;;;;;;43.38;20.86;98863.03;5092016;28;19931;-52
2022/09/04 10:27:55;;;;;;;;;;;;;;;44.04;20.62;98861.56;5091930;28;20448;-50
2022/09/04 10:30:27;;;;;;;;;;;;;;;44.62;20.51;98850.22;5091995;28;19912;-52
2022/09/04 10:32:53;;;;;;;;;;;;;;;44.49;19.82;98854.84;5090396;28;19916;-51
2022/09/04 10:35:19;;;;;;;;;;;;;;;44.57;19.97;98845.97;5092175;28;20311;-51
2022/09/04 10:38:01;;;;;;;;;;;;;;;45.33;19.13;98845.13;5091741;28;20006;-53
2022/09/04 10:40:37;;;;;;;;;;;;;;;45.10;17.88;98845.25;5090804;28;19912;-52
2022/09/04 10:43:14;;;;;;;;;;;;;;;44.49;18.45;98854.84;5094529;28;20304;-52
2022/09/04 10:45:42;;;;;;;;;;;;;;;44.32;18.93;98853.97;5094390;28;19916;-50
2022/09/04 10:48:23;;;;;;;;;;;;;;;43.62;18.70;98850.81;5095664;28;20397;-51
2022/09/04 10:50:55;;;;;;;;;;;;;;;42.81;18.88;98851.56;5095494;28;20008;-52
2022/09/04 10:53:23;;;;;;;;;;;;;;;42.11;19.94;98844.44;5095828;28;19912;-51
2022/09/04 10:56:01;;;;;;;;;;;;;;;41.86;20.40;98846.66;5095511;28;19923;-51
2022/09/04 10:58:43;;;;;;;;;;;;;;;42.53;20.82;98844.41;5095272;28;19949;-54
2022/09/04 11:01:22;;;;;;;;;;;;;;;43.44;19.88;98845.56;5095516;28;20419;-52
2022/09/04 11:04:12;;;;;;;;;;;;;;;44.46;19.61;98839.84;5095350;28;20322;-52
2022/09/04 11:06:56;;;;;;;;;;;;;;;45.13;19.30;98838.84;5095343;28;19919;-52
2022/09/04 11:09:30;;;;;;;;;;;;;;;45.32;18.60;98837.25;5093910;28;20408;-52
2022/09/04 11:12:14;;;;;;;;;;;;;;;44.67;18.32;98831.13;5095223;28;19916;-51
2022/09/04 11:14:56;;;;;;;;;;;;;;;44.01;18.74;98834.75;5095115;28;19916;-53
2022/09/04 11:17:32;;;;;;;;;;;;;;;43.44;18.78;98833.72;5093710;28;20294;-52
2022/09/04 11:20:16;;;;;;;;;;;;;;;43.72;19.28;98837.25;5095106;28;19915;-53
2022/09/04 11:22:51;;;;;;;;;;;;;;;42.69;19.70;98835.56;5095030;28;19958;-53
2022/09/04 11:25:22;;;;;;;;;;;;;;;42.50;19.78;98828.69;5094923;28;19935;-53
2022/09/04 11:27:48;;;;;;;;;;;;;;;42.46;19.94;98825.19;5094954;28;19919;-52
2022/09/04 11:30:22;;;;;;;;;;;;;;;42.23;20.08;98821.09;5094883;28;19916;-52
2022/09/04 11:32:50;;;;;;;;;;;;;;;41.67;20.20;98828.69;5094535;28;19919;-53
2022/09/04 11:35:35;;;;;;;;;;;;;;;41.71;20.20;98830.22;5095063;28;20377;-52
2022/09/04 11:38:06;;;;;;;;;;;;;;;41.75;20.28;98824.69;5094685;28;19951;-50
2022/09/04 11:40:54;;;;;;;;;;;;;;;41.56;20.33;98831.53;5094669;28;19912;-51
2022/09/04 11:43:46;;;;;;;;;;;;;;;41.27;20.20;98823.50;5093406;28;19913;-52
2022/09/04 11:46:33;;;;;;;;;;;;;;;40.87;20.50;98817.41;5092313;28;19955;-50
2022/09/04 11:49:09;;;;;;;;;;;;;;;41.04;20.73;98818.47;5094493;28;19965;-52
2022/09/04 11:51:49;;;;;;;;;;;;;;;41.82;20.61;98816.38;5094395;28;19943;-51
2022/09/04 11:54:22;;;;;;;;;;;;;;;42.65;19.67;98816.28;5093820;28;19981;-52
2022/09/04 11:57:17;;;;;;;;;;;;;;;42.95;18.35;98803.66;5094167;28;19919;-52
2022/09/04 12:00:00;;;;;;;;;;;;;;;42.03;17.92;98803.59;5051827;28;20421;-51
2022/09/04 12:02:37;;;;;;;;;;;;;;;41.30;18.87;98802.59;5051673;28;19913;-51
2022/09/04 12:05:15;;;;;;;;;;;;;;;41.04;19.76;98799.22;5051662;28;20362;-50
2022/09/04 12:07:49;;;;;;;;;;;;;;;40.98;20.18;98806.34;5051769;28;19959;-52
2022/09/04 12:10:22;;;;;;;;;;;;;;;41.07;19.55;98803.94;5051456;28;19967;-52
2022/09/04 12:12:47;;;;;;;;;;;;;;;40.99;19.64;98801.59;5051626;28;20291;-52
2022/09/04 12:15:23;;;;;;;;;;;;;;;40.99;20.10;98796.09;5051513;28;19913;-53
2022/09/04 12:18:07;;;;;;;;;;;;;;;41.08;19.78;98794.47;5051478;28;20007;-53
2022/09/04 12:20:46;;;;;;;;;;;;;;;41.55;20.17;98799.63;5051435;28;19916;-52
2022/09/04 12:23:12;;;;;;;;;;;;;;;42.15;19.75;98797.53;5051330;28;19917;-50
2022/09/04 12:25:40;;;;;;;;;;;;;;;42.83;19.59;98798.69;5051274;28;20394;-51
2022/09/04 12:28:09;;;;;;;;;;;;;;;43.40;18.66;98800.63;5051151;28;19944;-52
2022/09/04 12:30:49;;;;;;;;;;;;;;;43.23;18.51;98802.47;5051193;28;19913;-52
2022/09/04 12:33:26;;;;;;;;;;;;;;;43.08;18.80;98801.91;5050851;28;19923;-51
2022/09/04 12:36:12;;;;;;;;;;;;;;;43.31;18.23;98797.63;5072738;28;20003;-50
2022/09/04 12:38:38;;;;;;;;;;;;;;;43.26;17.78;98795.31;5093705;28;19995;-51
2022/09/04 12:41:26;;;;;;;;;;;;;;;43.14;18.36;98801.41;5093383;28;19961;-51
2022/09/04 12:44:04;;;;;;;;;;;;;;;42.74;18.32;98795.66;5092193;28;19912;-52
2022/09/04 12:46:49;;;;;;;;;;;;;;;41.80;18.63;98795.91;5093408;28;19912;-52
2022/09/04 12:49:32;;;;;;;;;;;;;;;41.42;19.55;98785.59;5093323;28;19919;-51
2022/09/04 12:52:16;;;;;;;;;;;;;;;40.51;20.03;98792.78;5093311;28;19912;-51
2022/09/04 12:54:50;;;;;;;;;;;;;;;39.88;20.88;98792.53;5093119;28;19912;-50
2022/09/04 12:57:17;;;;;;;;;;;;;;;39.70;20.89;98797.25;5091824;28;20366;-53
2022/09/04 12:59:48;;;;;;;;;;;;;;;39.65;21.39;98794.91;5091890;28;19912;-52
2022/09/04 13:02:33;;;;;;;;;;;;;;;39.67;21.43;98800.81;5093045;28;19919;-50
2022/09/04 13:05:10;;;;;;;;;;;;;;;39.43;21.37;98796.88;5092930;28;20011;-52
2022/09/04 13:07:54;;;;;;;;;;;;;;;39.01;21.88;98793.66;5093009;28;19916;-52
2022/09/04 13:10:19;;;;;;;;;;;;;;;38.44;22.64;98804.41;5091630;28;20266;-50
2022/09/04 13:12:55;;;;;;;;;;;;;;;38.11;23.32;98792.47;5092844;28;19962;-51
2022/09/04 13:15:27;;;;;;;;;;;;;;;37.82;23.18;98794.22;5092915;28;19964;-51
2022/09/04 13:18:13;;;;;;;;;;;;;;;37.57;23.97;98806.53;5092735;28;20026;-50
2022/09/04 13:20:47;;;;;;;;;;;;;;;37.47;23.57;98801.75;5092449;28;19912;-49
2022/09/04 13:23:34;;;;;;;;;;;;;;;37.44;23.86;98790.75;5091460;28;19919;-48
2022/09/04 13:26:06;;;;;;;;;;;;;;;37.45;23.69;98790.41;5092728;28;19965;-50
2022/09/04 13:28:44;;;;;;;;;;;;;;;37.09;23.57;98784.56;5091342;28;19912;-50
2022/09/04 13:31:13;;;;;;;;;;;;;;;37.05;23.99;98783.75;5092592;28;19915;-50
2022/09/04 13:33:56;;;;;;;;;;;;;;;36.57;23.83;98789.81;5092227;28;20366;-50
2022/09/04 13:36:22;;;;;;;;;;;;;;;36.15;24.68;98795.53;5091180;28;19997;-50
2022/09/04 13:39:01;;;;;;;;;;;;;;;35.92;24.90;98793.63;5092473;28;19920;-49